createdAt,value
2023-08-12T00:00:41.962Z,13.37
2023-08-12T00:03:09.469Z,10.97
2023-08-12T00:05:37.113Z,13.60
2023-08-12T00:08:04.477Z,11.60
2023-08-12T00:10:31.697Z,10.53
2023-08-12T00:12:58.912Z,11.53
2023-08-12T00:15:26.112Z,10.07
2023-08-12T00:17:54.290Z,11.27
2023-08-12T00:20:21.638Z,11.97
2023-08-12T00:22:48.855Z,10.47
2023-08-12T00:25:16.711Z,10.10
2023-08-12T00:27:43.985Z,9.50
2023-08-12T00:30:11.274Z,12.63
2023-08-12T00:32:38.498Z,9.47
2023-08-12T00:35:06.577Z,9.93
2023-08-12T00:37:33.848Z,9.43
2023-08-12T00:40:01.171Z,8.10
2023-08-12T00:42:28.352Z,10.50
2023-08-12T00:44:55.553Z,9.97
2023-08-12T00:47:23.341Z,9.40
2023-08-12T00:49:51.032Z,9.13
2023-08-12T00:52:19.286Z,8.40
2023-08-12T00:54:46.602Z,8.17
2023-08-12T00:57:14.097Z,8.90
2023-08-12T00:59:41.514Z,9.80
2023-08-12T01:02:08.948Z,9.27
2023-08-12T01:04:36.229Z,7.93
2023-08-12T01:07:04.611Z,8.27
2023-08-12T01:09:32.221Z,8.83
2023-08-12T01:12:04.080Z,8.20
2023-08-12T01:14:34.426Z,12.03
2023-08-12T01:17:06.897Z,8.30
2023-08-12T01:19:37.120Z,9.67
2023-08-12T01:22:05.327Z,10.27
2023-08-12T01:24:39.436Z,10.37
2023-08-12T01:27:07.515Z,10.60
2023-08-12T01:29:38.664Z,10.83
2023-08-12T01:32:10.713Z,9.73
2023-08-12T01:34:56.923Z,11.20
2023-08-12T01:37:29.001Z,8.60
2023-08-12T01:39:56.884Z,8.00
2023-08-12T01:42:25.995Z,9.37
2023-08-12T01:44:53.497Z,10.40
2023-08-12T01:47:20.769Z,9.03
2023-08-12T01:49:47.956Z,9.17
2023-08-12T01:52:15.164Z,8.47
2023-08-12T01:54:42.366Z,9.63
2023-08-12T01:57:10.386Z,8.30
2023-08-12T01:59:38.005Z,8.40
2023-08-12T02:02:05.411Z,9.47
2023-08-12T02:04:34.538Z,8.20
2023-08-12T02:07:01.794Z,8.43
2023-08-12T02:09:28.984Z,8.90
2023-08-12T02:11:56.207Z,7.50
2023-08-12T02:14:23.445Z,11.47
2023-08-12T02:16:50.749Z,10.13
2023-08-12T02:19:17.953Z,10.50
2023-08-12T02:21:45.330Z,9.20
2023-08-12T02:24:12.580Z,8.30
2023-08-12T02:26:40.013Z,8.77
2023-08-12T02:29:07.264Z,8.00
2023-08-12T02:31:34.508Z,11.37
2023-08-12T02:34:01.889Z,8.23
2023-08-12T02:36:29.126Z,8.73
2023-08-12T02:38:56.343Z,8.47
2023-08-12T02:41:23.571Z,9.13
2023-08-12T02:43:50.779Z,10.77
2023-08-12T02:46:19.254Z,9.33
2023-08-12T02:48:48.589Z,11.50
2023-08-12T02:51:15.966Z,10.93
2023-08-12T02:53:43.187Z,8.77
2023-08-12T02:56:10.447Z,9.60
2023-08-12T02:58:38.758Z,8.50
2023-08-12T03:01:05.973Z,9.27
2023-08-12T03:03:33.251Z,9.17
2023-08-12T03:06:00.462Z,9.93
2023-08-12T03:08:27.642Z,8.97
2023-08-12T03:11:03.953Z,10.87
2023-08-12T03:13:31.362Z,8.70
2023-08-12T03:15:58.633Z,8.13
2023-08-12T03:18:25.916Z,9.37
2023-08-12T03:20:53.170Z,9.57
2023-08-12T03:23:20.445Z,8.70
2023-08-12T03:25:50.501Z,8.53
2023-08-12T03:28:18.074Z,8.83
2023-08-12T03:30:52.401Z,8.97
2023-08-12T03:33:19.983Z,11.07
2023-08-12T03:35:48.030Z,11.47
2023-08-12T03:38:15.403Z,12.30
2023-08-12T03:40:43.164Z,9.40
2023-08-12T03:43:10.385Z,10.27
2023-08-12T03:45:55.509Z,9.33
2023-08-12T03:48:22.739Z,9.20
2023-08-12T03:50:50.137Z,8.77
2023-08-12T03:53:18.553Z,12.60
2023-08-12T03:55:45.773Z,8.80
2023-08-12T03:58:12.955Z,10.83
2023-08-12T04:00:46.566Z,10.90
2023-08-12T04:03:14.086Z,9.07
2023-08-12T04:05:49.671Z,10.37
2023-08-12T04:08:16.940Z,9.30
2023-08-12T04:10:46.440Z,11.00
2023-08-12T04:13:13.689Z,10.53
2023-08-12T04:15:41.068Z,10.13
2023-08-12T04:18:08.456Z,9.27
2023-08-12T04:20:35.774Z,10.50
2023-08-12T04:23:02.986Z,11.87
2023-08-12T04:25:30.170Z,11.27
2023-08-12T04:27:57.354Z,10.33
2023-08-12T04:30:24.662Z,9.37
2023-08-12T04:32:51.898Z,9.70
2023-08-12T04:35:19.125Z,9.13
2023-08-12T04:37:46.318Z,9.70
2023-08-12T04:40:13.582Z,10.60
2023-08-12T04:42:40.816Z,11.13
2023-08-12T04:45:08.802Z,9.93
2023-08-12T04:47:36.040Z,11.10
2023-08-12T04:50:03.669Z,12.47
2023-08-12T04:52:30.949Z,11.30
2023-08-12T04:54:58.198Z,9.40
2023-08-12T04:57:25.578Z,10.50
2023-08-12T04:59:52.870Z,8.73
2023-08-12T05:02:21.764Z,10.57
2023-08-12T05:04:50.977Z,12.23
2023-08-12T05:07:18.280Z,12.10
2023-08-12T05:09:45.603Z,10.50
2023-08-12T05:12:13.081Z,10.53
2023-08-12T05:14:41.337Z,10.50
2023-08-12T05:17:08.853Z,9.47
2023-08-12T05:19:36.072Z,11.30
2023-08-12T05:22:03.316Z,13.37
2023-08-12T05:24:30.515Z,10.00
2023-08-12T05:26:57.842Z,9.93
2023-08-12T05:29:25.017Z,10.87
2023-08-12T05:31:52.242Z,12.07
2023-08-12T05:34:19.438Z,12.63
2023-08-12T05:36:46.744Z,10.90
2023-08-12T05:39:14.009Z,11.03
2023-08-12T05:41:41.303Z,9.77
2023-08-12T05:44:08.591Z,12.63
2023-08-12T05:46:35.770Z,12.50
2023-08-12T05:49:02.982Z,13.77
2023-08-12T05:51:30.902Z,12.07
2023-08-12T05:53:58.215Z,11.73
2023-08-12T05:56:25.415Z,13.37
2023-08-12T05:58:52.598Z,12.97
2023-08-12T06:01:21.120Z,12.40
2023-08-12T06:03:48.435Z,12.47
2023-08-12T06:06:15.631Z,13.20
2023-08-12T06:08:42.905Z,12.20
2023-08-12T06:11:10.084Z,12.85
2023-08-12T06:13:37.286Z,13.17
2023-08-12T06:16:05.799Z,10.17
2023-08-12T06:18:33.050Z,14.60
2023-08-12T06:21:00.274Z,13.33
2023-08-12T06:23:27.973Z,11.70
2023-08-12T06:25:55.267Z,13.37
2023-08-12T06:28:22.513Z,10.97
2023-08-12T06:30:49.856Z,14.37
2023-08-12T06:33:17.097Z,14.00
2023-08-12T06:35:44.345Z,12.03
2023-08-12T06:38:11.581Z,12.60
2023-08-12T06:40:40.240Z,14.20
2023-08-12T06:43:08.783Z,13.70
2023-08-12T06:45:36.363Z,15.10
2023-08-12T06:48:03.732Z,15.30
2023-08-12T06:50:31.680Z,13.87
2023-08-12T06:52:58.858Z,13.67
2023-08-12T06:55:26.046Z,15.57
2023-08-12T06:57:53.257Z,14.83
2023-08-12T07:00:20.509Z,12.97
2023-08-12T07:02:47.753Z,18.63
2023-08-12T07:05:15.032Z,15.80
2023-08-12T07:07:42.257Z,15.83
2023-08-12T07:10:09.825Z,18.53
2023-08-12T07:12:37.018Z,15.90
2023-08-12T07:15:04.582Z,18.33
2023-08-12T07:17:31.820Z,16.97
2023-08-12T07:19:59.051Z,16.10
2023-08-12T07:22:26.533Z,14.23
2023-08-12T07:24:53.819Z,19.60
2023-08-12T07:27:21.147Z,17.63
2023-08-12T07:29:48.477Z,15.67
2023-08-12T07:32:15.711Z,14.67
2023-08-12T07:34:42.907Z,15.03
2023-08-12T07:37:10.098Z,17.67
2023-08-12T07:39:37.358Z,21.07
2023-08-12T07:42:04.857Z,16.83
2023-08-12T07:44:32.136Z,14.67
2023-08-12T07:46:59.643Z,13.87
2023-08-12T07:49:26.876Z,18.35
2023-08-12T07:51:54.092Z,16.63
2023-08-12T07:54:21.501Z,16.57
2023-08-12T07:56:48.722Z,14.27
2023-08-12T07:59:17.227Z,13.90
2023-08-12T08:01:44.461Z,14.10
2023-08-12T08:04:11.742Z,16.00
2023-08-12T08:06:39.145Z,15.53
2023-08-12T08:09:06.441Z,12.70
2023-08-12T08:11:35.331Z,16.50
2023-08-12T08:14:02.575Z,14.93
2023-08-12T08:16:29.899Z,14.23
2023-08-12T08:18:58.834Z,13.53
2023-08-12T08:21:26.131Z,13.73
2023-08-12T08:23:53.322Z,13.43
2023-08-12T08:26:20.587Z,15.17
2023-08-12T08:28:47.838Z,12.13
2023-08-12T08:31:15.155Z,12.70
2023-08-12T08:33:45.165Z,13.80
2023-08-12T08:36:12.675Z,11.20
2023-08-12T08:38:39.896Z,12.40
2023-08-12T08:41:08.337Z,12.00
2023-08-12T08:43:37.200Z,14.30
2023-08-12T08:46:04.433Z,11.80
2023-08-12T08:48:31.684Z,14.33
2023-08-12T08:50:59.206Z,12.90
2023-08-12T08:53:26.436Z,11.73
2023-08-12T08:56:01.420Z,12.33
2023-08-12T08:58:29.147Z,13.73
2023-08-12T09:00:56.483Z,13.07
2023-08-12T09:03:23.886Z,14.53
2023-08-12T09:05:52.699Z,12.93
2023-08-12T09:08:20.360Z,12.80
2023-08-12T09:10:48.121Z,15.00
2023-08-12T09:13:16.126Z,13.47
2023-08-12T09:15:43.430Z,10.43
2023-08-12T09:18:11.112Z,13.07
2023-08-12T09:20:38.371Z,13.17
2023-08-12T09:23:05.646Z,11.80
2023-08-12T09:25:33.002Z,14.10
2023-08-12T09:28:00.932Z,13.47
2023-08-12T09:30:32.476Z,14.83
2023-08-12T09:33:01.971Z,15.03
2023-08-12T09:35:36.622Z,12.90
2023-08-12T09:38:07.733Z,12.23
2023-08-12T09:40:35.820Z,13.23
2023-08-12T09:43:03.470Z,10.90
2023-08-12T09:45:32.115Z,10.13
2023-08-12T09:47:59.860Z,10.52
2023-08-12T09:50:27.870Z,11.05
2023-08-12T09:52:56.052Z,10.25
2023-08-12T09:55:24.835Z,11.57
2023-08-12T09:57:55.950Z,9.93
2023-08-12T10:00:24.701Z,12.07
2023-08-12T10:02:52.820Z,12.38
2023-08-12T10:05:29.005Z,12.18
2023-08-12T10:07:56.676Z,13.63
2023-08-12T10:10:23.979Z,14.05
2023-08-12T10:12:52.782Z,12.40
2023-08-12T10:15:20.910Z,9.60
2023-08-12T10:17:48.949Z,10.55
2023-08-12T10:20:21.737Z,10.35
2023-08-12T10:22:49.556Z,10.50
2023-08-12T10:25:17.644Z,9.88
2023-08-12T10:27:45.218Z,10.13
2023-08-12T10:30:14.591Z,11.70
2023-08-12T10:32:41.851Z,10.02
2023-08-12T10:35:09.711Z,8.68
2023-08-12T10:37:37.001Z,9.80
2023-08-12T10:40:08.622Z,9.23
2023-08-12T10:42:46.132Z,10.18
2023-08-12T10:45:14.037Z,9.18
2023-08-12T10:47:47.849Z,9.70
2023-08-12T10:50:19.308Z,11.68
2023-08-12T10:52:46.846Z,8.65
2023-08-12T10:55:22.198Z,8.15
2023-08-12T10:57:50.044Z,9.93
2023-08-12T11:00:36.994Z,9.63
2023-08-12T11:03:07.591Z,9.27
2023-08-12T11:05:38.610Z,8.32
2023-08-12T11:08:07.473Z,9.75
2023-08-12T11:10:36.199Z,8.50
2023-08-12T11:13:04.521Z,10.20
2023-08-12T11:15:38.859Z,9.60
2023-08-12T11:18:06.315Z,8.75
2023-08-12T11:20:34.543Z,7.82
2023-08-12T11:23:02.543Z,7.40
2023-08-12T11:25:30.596Z,6.63
2023-08-12T11:27:58.351Z,7.55
2023-08-12T11:30:26.001Z,7.55
2023-08-12T11:32:54.699Z,7.10
2023-08-12T11:35:22.916Z,7.72
2023-08-12T11:37:51.113Z,7.97
2023-08-12T11:40:18.997Z,9.48
2023-08-12T11:42:47.101Z,8.18
2023-08-12T11:45:15.329Z,9.23
2023-08-12T11:47:42.860Z,9.35
2023-08-12T11:50:11.388Z,10.75
2023-08-12T11:52:39.066Z,9.52
2023-08-12T11:55:09.294Z,8.52
2023-08-12T11:57:36.738Z,8.30
2023-08-12T12:00:09.301Z,9.35
2023-08-12T12:02:53.039Z,9.52
2023-08-12T12:05:29.257Z,7.70
2023-08-12T12:07:56.782Z,7.82
2023-08-12T12:10:33.953Z,7.55
2023-08-12T12:13:03.123Z,7.30
2023-08-12T12:15:30.457Z,7.22
2023-08-12T12:17:57.714Z,8.20
2023-08-12T12:20:25.133Z,7.53
2023-08-12T12:22:52.326Z,8.15
2023-08-12T12:25:22.788Z,6.32
2023-08-12T12:27:50.021Z,7.60
2023-08-12T12:30:17.882Z,8.00
2023-08-12T12:32:46.350Z,8.05
2023-08-12T12:35:13.877Z,6.90
2023-08-12T12:37:41.387Z,7.78
2023-08-12T12:40:09.118Z,7.22
2023-08-12T12:42:36.374Z,8.93
2023-08-12T12:45:03.900Z,8.88
2023-08-12T12:47:31.335Z,7.68
2023-08-12T12:49:58.658Z,8.85
2023-08-12T12:52:25.937Z,7.47
2023-08-12T12:54:53.305Z,9.55
2023-08-12T12:57:20.552Z,8.75
2023-08-12T12:59:47.768Z,9.18
2023-08-12T13:02:15.195Z,8.07
2023-08-12T13:04:43.784Z,9.38
2023-08-12T13:07:11.065Z,7.00
2023-08-12T13:09:39.232Z,8.65
2023-08-12T13:12:06.992Z,6.43
2023-08-12T13:14:34.299Z,7.18
2023-08-12T13:17:01.576Z,6.90
2023-08-12T13:19:28.798Z,6.40
2023-08-12T13:21:56.035Z,7.05
2023-08-12T13:24:23.378Z,6.45
2023-08-12T13:26:50.664Z,6.65
2023-08-12T13:29:17.846Z,5.07
2023-08-12T13:31:45.397Z,5.97
2023-08-12T13:34:12.628Z,6.75
2023-08-12T13:36:40.306Z,6.70
2023-08-12T13:39:07.572Z,6.65
2023-08-12T13:41:35.047Z,6.45
2023-08-12T13:44:04.907Z,5.35
2023-08-12T13:46:32.092Z,5.40
2023-08-12T13:48:59.276Z,4.97
2023-08-12T13:51:26.493Z,5.25
2023-08-12T13:53:53.941Z,4.22
2023-08-12T13:56:23.395Z,5.20
2023-08-12T13:58:50.585Z,5.38
2023-08-12T14:01:17.913Z,3.75
2023-08-12T14:03:45.133Z,3.58
2023-08-12T14:06:12.373Z,4.25
2023-08-12T14:08:39.701Z,4.45
2023-08-12T14:11:06.891Z,5.35
2023-08-12T14:13:34.141Z,4.95
2023-08-12T14:16:01.390Z,5.50
2023-08-12T14:18:28.566Z,5.40
2023-08-12T14:20:55.778Z,6.68
2023-08-12T14:23:24.085Z,6.63
2023-08-12T14:25:51.280Z,5.90
2023-08-12T14:28:18.476Z,5.72
2023-08-12T14:30:45.713Z,6.15
2023-08-12T14:33:13.060Z,5.72
2023-08-12T14:35:40.295Z,6.38
2023-08-12T14:38:07.475Z,7.28
2023-08-12T14:40:35.336Z,6.47
2023-08-12T14:43:02.533Z,7.35
2023-08-12T14:45:30.187Z,5.90
2023-08-12T14:47:57.406Z,6.43
2023-08-12T14:50:24.604Z,5.78
2023-08-12T14:52:51.815Z,5.90
2023-08-12T14:55:19.041Z,6.43
2023-08-12T14:57:46.289Z,6.55
2023-08-12T15:00:13.900Z,5.25
2023-08-12T15:02:41.236Z,6.55
2023-08-12T15:05:08.655Z,6.38
2023-08-12T15:07:35.910Z,6.45
2023-08-12T15:10:03.390Z,6.28
2023-08-12T15:12:30.907Z,6.18
2023-08-12T15:14:58.485Z,6.25
2023-08-12T15:17:25.790Z,6.13
2023-08-12T15:19:53.060Z,5.95
2023-08-12T15:22:20.300Z,6.00
2023-08-12T15:24:47.543Z,5.78
2023-08-12T15:27:15.049Z,5.60
2023-08-12T15:29:42.554Z,6.80
2023-08-12T15:32:09.745Z,7.00
2023-08-12T15:34:37.013Z,6.85
2023-08-12T15:37:05.017Z,5.57
2023-08-12T15:39:32.366Z,6.53
2023-08-12T15:41:59.886Z,6.82
2023-08-12T15:44:27.117Z,6.53
2023-08-12T15:46:54.360Z,7.30
2023-08-12T15:49:21.808Z,5.32
2023-08-12T15:51:49.020Z,5.40
2023-08-12T15:54:16.269Z,7.18
2023-08-12T15:56:43.466Z,7.05
2023-08-12T15:59:10.956Z,8.30
2023-08-12T16:01:38.245Z,7.35
2023-08-12T16:04:06.239Z,6.72
2023-08-12T16:06:33.556Z,5.25
2023-08-12T16:09:17.419Z,7.15
2023-08-12T16:11:45.278Z,6.55
2023-08-12T16:14:12.529Z,5.30
2023-08-12T16:16:40.361Z,5.55
2023-08-12T16:19:08.159Z,6.28
2023-08-12T16:21:35.407Z,6.47
2023-08-12T16:24:02.616Z,5.93
2023-08-12T16:26:29.805Z,5.93
2023-08-12T16:28:57.013Z,5.88
2023-08-12T16:31:24.718Z,7.28
2023-08-12T16:33:52.076Z,6.28
2023-08-12T16:36:19.364Z,7.25
2023-08-12T16:38:46.597Z,4.90
2023-08-12T16:41:13.928Z,5.28
2023-08-12T16:43:41.140Z,5.65
2023-08-12T16:46:08.405Z,5.38
2023-08-12T16:48:35.618Z,5.70
2023-08-12T16:51:02.828Z,5.95
2023-08-12T16:53:30.074Z,5.55
2023-08-12T16:55:57.273Z,6.20
2023-08-12T16:58:24.481Z,7.00
2023-08-12T17:00:51.715Z,6.38
2023-08-12T17:03:19.041Z,5.95
2023-08-12T17:05:46.345Z,6.47
2023-08-12T17:08:13.530Z,5.82
2023-08-12T17:10:42.143Z,6.25
2023-08-12T17:13:09.359Z,7.18
2023-08-12T17:15:36.845Z,6.25
2023-08-12T17:18:04.670Z,7.25
2023-08-12T17:20:32.055Z,6.27
2023-08-12T17:22:59.530Z,6.03
2023-08-12T17:25:26.820Z,5.60
2023-08-12T17:27:54.070Z,7.20
2023-08-12T17:30:21.412Z,7.53
2023-08-12T17:32:48.820Z,7.53
2023-08-12T17:35:16.122Z,5.90
2023-08-12T17:37:43.330Z,6.53
2023-08-12T17:40:13.849Z,6.57
2023-08-12T17:42:41.156Z,7.40
2023-08-12T17:45:08.549Z,7.13
2023-08-12T17:47:35.809Z,6.78
2023-08-12T17:50:03.021Z,7.30
2023-08-12T17:52:30.204Z,7.43
2023-08-12T17:54:57.415Z,6.80
2023-08-12T17:57:24.677Z,7.23
2023-08-12T17:59:52.900Z,9.07
2023-08-12T18:02:20.094Z,5.93
2023-08-12T18:04:47.322Z,6.63
2023-08-12T18:07:14.735Z,6.80
2023-08-12T18:09:41.955Z,7.10
2023-08-12T18:12:09.144Z,6.53
2023-08-12T18:14:36.334Z,5.87
2023-08-12T18:17:03.598Z,7.45
2023-08-12T18:19:30.940Z,6.30
2023-08-12T18:21:58.134Z,7.63
2023-08-12T18:24:25.308Z,7.50
2023-08-12T18:26:52.624Z,7.43
2023-08-12T18:29:19.813Z,8.63
2023-08-12T18:31:47.014Z,6.53
2023-08-12T18:34:14.343Z,6.53
2023-08-12T18:36:41.530Z,6.53
2023-08-12T18:39:08.806Z,5.90
2023-08-12T18:41:36.088Z,6.73
2023-08-12T18:44:03.377Z,7.00
2023-08-12T18:46:30.608Z,6.47
2023-08-12T18:48:57.786Z,9.13
2023-08-12T18:51:25.113Z,6.97
2023-08-12T18:53:52.323Z,6.27
2023-08-12T18:56:19.594Z,8.70
2023-08-12T18:58:46.798Z,8.63
2023-08-12T19:01:14.024Z,6.82
2023-08-12T19:03:41.325Z,7.80
2023-08-12T19:06:08.673Z,6.67
2023-08-12T19:08:35.866Z,7.63
2023-08-12T19:11:03.123Z,6.73
2023-08-12T19:13:30.556Z,9.17
2023-08-12T19:15:58.139Z,6.87
2023-08-12T19:18:26.811Z,6.97
2023-08-12T19:20:54.268Z,7.33
2023-08-12T19:23:22.101Z,7.93
2023-08-12T19:25:49.278Z,7.33
2023-08-12T19:28:16.984Z,7.40
2023-08-12T19:30:44.299Z,8.37
2023-08-12T19:33:11.569Z,7.80
2023-08-12T19:35:38.853Z,8.37
2023-08-12T19:38:11.982Z,7.40
2023-08-12T19:40:39.317Z,7.50
2023-08-12T19:43:06.563Z,8.00
2023-08-12T19:45:34.146Z,7.37
2023-08-12T19:48:01.455Z,8.77
2023-08-12T19:50:29.991Z,7.07
2023-08-12T19:52:57.571Z,8.10
2023-08-12T19:55:24.973Z,7.90
2023-08-12T19:57:52.230Z,8.23
2023-08-12T20:00:19.489Z,7.03
2023-08-12T20:02:47.556Z,8.73
2023-08-12T20:05:15.410Z,7.00
2023-08-12T20:07:43.370Z,8.17
2023-08-12T20:10:11.349Z,7.83
2023-08-12T20:12:38.638Z,7.83
2023-08-12T20:15:06.396Z,7.67
2023-08-12T20:17:34.438Z,7.30
2023-08-12T20:20:02.556Z,7.80
2023-08-12T20:22:30.294Z,7.63
2023-08-12T20:24:57.531Z,8.10
2023-08-12T20:27:24.815Z,7.73
2023-08-12T20:29:52.096Z,8.37
2023-08-12T20:32:19.357Z,6.93
2023-08-12T20:34:46.601Z,8.20
2023-08-12T20:37:13.897Z,8.67
2023-08-12T20:39:41.395Z,7.43
2023-08-12T20:42:08.714Z,7.67
2023-08-12T20:44:35.933Z,7.73
2023-08-12T20:47:03.124Z,8.80
2023-08-12T20:49:30.331Z,7.70
2023-08-12T20:51:57.687Z,8.53
2023-08-12T20:54:27.408Z,9.20
2023-08-12T20:56:54.965Z,8.40
2023-08-12T20:59:22.183Z,7.20
2023-08-12T21:01:49.624Z,9.00
2023-08-12T21:04:16.873Z,8.90
2023-08-12T21:06:44.880Z,8.40
2023-08-12T21:09:12.202Z,8.27
2023-08-12T21:11:39.469Z,9.57
2023-08-12T21:14:06.918Z,9.30
2023-08-12T21:16:34.296Z,8.87
2023-08-12T21:19:01.646Z,9.63
2023-08-12T21:21:28.925Z,8.73
2023-08-12T21:23:56.136Z,10.20
2023-08-12T21:26:23.323Z,9.10
2023-08-12T21:28:50.613Z,8.63
2023-08-12T21:31:17.838Z,8.87
2023-08-12T21:33:45.408Z,7.30
2023-08-12T21:36:15.051Z,8.43
2023-08-12T21:38:42.292Z,7.03
2023-08-12T21:41:09.487Z,7.67
2023-08-12T21:43:36.716Z,9.57
2023-08-12T21:46:03.972Z,7.80
2023-08-12T21:48:31.216Z,9.43
2023-08-12T21:50:58.497Z,9.53
2023-08-12T21:53:25.697Z,10.00
2023-08-12T21:55:52.998Z,10.43
2023-08-12T21:58:20.238Z,11.67
2023-08-12T22:00:49.548Z,10.80
2023-08-12T22:03:17.772Z,10.97
2023-08-12T22:05:44.984Z,10.60
2023-08-12T22:08:12.207Z,11.67
2023-08-12T22:10:41.804Z,11.27
2023-08-12T22:13:09.008Z,11.93
2023-08-12T22:15:36.522Z,11.00
2023-08-12T22:18:03.843Z,9.37
2023-08-12T22:20:31.099Z,9.27
2023-08-12T22:22:58.309Z,9.70
2023-08-12T22:25:25.517Z,8.93
2023-08-12T22:27:52.932Z,8.20
2023-08-12T22:30:20.164Z,9.63
2023-08-12T22:32:47.447Z,8.73
2023-08-12T22:35:14.743Z,9.47
2023-08-12T22:37:41.971Z,8.30
2023-08-12T22:40:10.627Z,8.20
2023-08-12T22:42:37.865Z,9.87
2023-08-12T22:45:08.408Z,8.57
2023-08-12T22:47:35.775Z,8.90
2023-08-12T22:50:05.041Z,7.13
2023-08-12T22:52:32.280Z,6.67
2023-08-12T22:54:59.538Z,6.20
2023-08-12T22:57:27.110Z,6.77
2023-08-12T22:59:54.298Z,5.80
2023-08-12T23:02:21.549Z,5.80
2023-08-12T23:04:48.848Z,5.13
2023-08-12T23:07:16.028Z,5.50
2023-08-12T23:09:43.272Z,5.50
2023-08-12T23:12:10.518Z,5.17
2023-08-12T23:14:37.695Z,6.73
2023-08-12T23:17:04.937Z,4.90
2023-08-12T23:19:32.219Z,5.47
2023-08-12T23:21:59.532Z,5.57
2023-08-12T23:24:26.835Z,5.97
2023-08-12T23:26:54.081Z,5.30
2023-08-12T23:29:21.323Z,7.90
2023-08-12T23:31:48.555Z,6.07
2023-08-12T23:34:15.755Z,6.40
2023-08-12T23:36:43.395Z,5.50
2023-08-12T23:39:13.447Z,6.23
2023-08-12T23:41:40.663Z,5.47
2023-08-12T23:44:07.861Z,6.23
2023-08-12T23:46:35.107Z,6.33
2023-08-12T23:49:02.470Z,6.90
2023-08-12T23:51:29.706Z,7.10
2023-08-12T23:53:56.900Z,6.20
2023-08-12T23:56:24.133Z,6.70
2023-08-12T23:58:51.380Z,6.40
